Terminal Aerodrome Forecast
Issued by NWS

Home | Current Version | Previous Version | Text Only | Print | Product List | Glossary On
Versions: 1 2 3 4 5 6 7 8 9 10 11 12 13 14 15 16 17 18
914
FTUS41 KCAR 290923 AAA
TAFBHB
TAF AMD
KBHB 290923Z 2909/3006 09006KT P6SM SCT015 BKN050
      TEMPO 2909/2911 BKN015
     FM291200 09008KT P6SM BKN025
     FM291500 11008KT P6SM BKN020
     FM300100 14007KT 4SM BR OVC008
     FM300200 14007KT 2SM BR OVC003=

USA.gov is the U.S. government's official web portal to all federal, state and local government web resources and services.